sensor_id;sensor_type;location;lat;lon;timestamp;P1;durP1;ratioP1;P2;durP2;ratioP2
26325;SDS011;14032;52.510;7.342;2023-12-22T00:00:17;33.58;;;5.05;;
26325;SDS011;14032;52.510;7.342;2023-12-22T00:02:43;28.17;;;4.53;;
26325;SDS011;14032;52.510;7.342;2023-12-22T00:05:08;32.50;;;4.78;;
26325;SDS011;14032;52.510;7.342;2023-12-22T00:07:34;38.92;;;5.05;;
26325;SDS011;14032;52.510;7.342;2023-12-22T00:09:59;36.95;;;4.70;;
26325;SDS011;14032;52.510;7.342;2023-12-22T00:12:25;31.95;;;4.93;;
26325;SDS011;14032;52.510;7.342;2023-12-22T00:14:50;28.45;;;4.93;;
26325;SDS011;14032;52.510;7.342;2023-12-22T00:17:16;35.67;;;4.20;;
26325;SDS011;14032;52.510;7.342;2023-12-22T00:19:42;35.72;;;4.80;;
26325;SDS011;14032;52.510;7.342;2023-12-22T00:22:07;30.23;;;4.15;;
26325;SDS011;14032;52.510;7.342;2023-12-22T00:24:33;33.90;;;4.93;;
26325;SDS011;14032;52.510;7.342;2023-12-22T00:26:58;31.42;;;4.57;;
26325;SDS011;14032;52.510;7.342;2023-12-22T00:29:24;32.72;;;4.32;;
26325;SDS011;14032;52.510;7.342;2023-12-22T00:31:50;22.25;;;3.95;;
26325;SDS011;14032;52.510;7.342;2023-12-22T00:34:15;28.88;;;4.70;;
26325;SDS011;14032;52.510;7.342;2023-12-22T00:36:41;21.85;;;3.22;;
26325;SDS011;14032;52.510;7.342;2023-12-22T00:39:06;21.92;;;2.83;;
26325;SDS011;14032;52.510;7.342;2023-12-22T00:41:32;21.10;;;3.00;;
26325;SDS011;14032;52.510;7.342;2023-12-22T00:43:58;25.05;;;3.33;;
26325;SDS011;14032;52.510;7.342;2023-12-22T00:46:23;22.23;;;3.05;;
26325;SDS011;14032;52.510;7.342;2023-12-22T00:48:49;22.73;;;3.55;;
26325;SDS011;14032;52.510;7.342;2023-12-22T00:51:14;25.50;;;3.60;;
26325;SDS011;14032;52.510;7.342;2023-12-22T00:53:41;28.70;;;3.38;;
26325;SDS011;14032;52.510;7.342;2023-12-22T00:56:07;21.17;;;3.65;;
26325;SDS011;14032;52.510;7.342;2023-12-22T00:58:33;23.27;;;3.97;;
26325;SDS011;14032;52.510;7.342;2023-12-22T01:00:58;23.25;;;4.35;;
26325;SDS011;14032;52.510;7.342;2023-12-22T01:03:24;18.25;;;3.33;;
26325;SDS011;14032;52.510;7.342;2023-12-22T01:05:49;31.50;;;4.22;;
26325;SDS011;14032;52.510;7.342;2023-12-22T01:08:15;31.13;;;3.67;;
26325;SDS011;14032;52.510;7.342;2023-12-22T01:10:41;30.20;;;3.58;;
26325;SDS011;14032;52.510;7.342;2023-12-22T01:13:06;29.00;;;3.83;;
26325;SDS011;14032;52.510;7.342;2023-12-22T01:15:32;20.30;;;3.78;;
26325;SDS011;14032;52.510;7.342;2023-12-22T01:17:57;24.13;;;4.28;;
26325;SDS011;14032;52.510;7.342;2023-12-22T01:20:23;20.10;;;3.95;;
26325;SDS011;14032;52.510;7.342;2023-12-22T01:22:48;24.60;;;3.90;;
26325;SDS011;14032;52.510;7.342;2023-12-22T01:25:14;31.77;;;4.45;;
26325;SDS011;14032;52.510;7.342;2023-12-22T01:27:40;27.23;;;3.72;;
26325;SDS011;14032;52.510;7.342;2023-12-22T01:30:06;31.50;;;4.80;;
26325;SDS011;14032;52.510;7.342;2023-12-22T01:32:32;20.23;;;3.13;;
26325;SDS011;14032;52.510;7.342;2023-12-22T01:34:59;19.73;;;2.67;;
26325;SDS011;14032;52.510;7.342;2023-12-22T01:37:28;24.02;;;3.17;;
26325;SDS011;14032;52.510;7.342;2023-12-22T01:39:54;21.35;;;2.88;;
26325;SDS011;14032;52.510;7.342;2023-12-22T01:42:20;22.20;;;3.33;;
26325;SDS011;14032;52.510;7.342;2023-12-22T01:44:45;25.17;;;3.20;;
26325;SDS011;14032;52.510;7.342;2023-12-22T01:47:11;24.38;;;3.55;;
26325;SDS011;14032;52.510;7.342;2023-12-22T01:49:37;22.30;;;3.35;;
26325;SDS011;14032;52.510;7.342;2023-12-22T01:52:02;32.00;;;3.80;;
26325;SDS011;14032;52.510;7.342;2023-12-22T01:54:28;29.10;;;3.58;;
26325;SDS011;14032;52.510;7.342;2023-12-22T01:56:54;24.30;;;3.75;;
26325;SDS011;14032;52.510;7.342;2023-12-22T01:59:21;33.63;;;3.95;;
26325;SDS011;14032;52.510;7.342;2023-12-22T02:01:47;22.60;;;3.25;;
26325;SDS011;14032;52.510;7.342;2023-12-22T02:04:13;25.27;;;3.30;;
26325;SDS011;14032;52.510;7.342;2023-12-22T02:06:40;26.08;;;2.75;;
26325;SDS011;14032;52.510;7.342;2023-12-22T02:09:07;23.92;;;3.78;;
26325;SDS011;14032;52.510;7.342;2023-12-22T02:11:33;26.02;;;3.55;;
26325;SDS011;14032;52.510;7.342;2023-12-22T02:13:59;26.58;;;4.05;;
26325;SDS011;14032;52.510;7.342;2023-12-22T02:19:01;25.63;;;3.92;;
26325;SDS011;14032;52.510;7.342;2023-12-22T02:24:29;24.88;;;3.97;;
26325;SDS011;14032;52.510;7.342;2023-12-22T02:27:04;26.27;;;3.53;;
26325;SDS011;14032;52.510;7.342;2023-12-22T02:29:41;34.25;;;4.05;;
26325;SDS011;14032;52.510;7.342;2023-12-22T02:32:12;26.08;;;3.33;;
26325;SDS011;14032;52.510;7.342;2023-12-22T02:34:44;23.83;;;3.03;;
26325;SDS011;14032;52.510;7.342;2023-12-22T02:37:15;21.85;;;3.30;;
26325;SDS011;14032;52.510;7.342;2023-12-22T02:39:42;22.75;;;3.40;;
26325;SDS011;14032;52.510;7.342;2023-12-22T02:42:08;25.25;;;3.78;;
26325;SDS011;14032;52.510;7.342;2023-12-22T02:44:34;22.30;;;3.45;;
26325;SDS011;14032;52.510;7.342;2023-12-22T02:47:00;27.15;;;3.22;;
26325;SDS011;14032;52.510;7.342;2023-12-22T02:49:25;31.90;;;3.92;;
26325;SDS011;14032;52.510;7.342;2023-12-22T02:51:51;27.38;;;4.38;;
26325;SDS011;14032;52.510;7.342;2023-12-22T02:54:17;26.48;;;3.08;;
26325;SDS011;14032;52.510;7.342;2023-12-22T02:56:45;18.95;;;3.65;;
26325;SDS011;14032;52.510;7.342;2023-12-22T02:59:11;37.45;;;4.35;;
26325;SDS011;14032;52.510;7.342;2023-12-22T03:01:37;23.60;;;3.85;;
26325;SDS011;14032;52.510;7.342;2023-12-22T03:04:02;27.00;;;4.07;;
26325;SDS011;14032;52.510;7.342;2023-12-22T03:06:28;28.50;;;3.97;;
26325;SDS011;14032;52.510;7.342;2023-12-22T03:08:53;19.55;;;2.90;;
26325;SDS011;14032;52.510;7.342;2023-12-22T03:11:19;37.72;;;4.63;;
26325;SDS011;14032;52.510;7.342;2023-12-22T03:13:44;20.90;;;3.17;;
26325;SDS011;14032;52.510;7.342;2023-12-22T03:16:10;20.10;;;3.00;;
26325;SDS011;14032;52.510;7.342;2023-12-22T03:18:39;16.00;;;2.78;;
26325;SDS011;14032;52.510;7.342;2023-12-22T03:21:04;12.30;;;2.13;;
26325;SDS011;14032;52.510;7.342;2023-12-22T03:23:30;14.23;;;2.35;;
26325;SDS011;14032;52.510;7.342;2023-12-22T03:25:56;12.35;;;2.00;;
26325;SDS011;14032;52.510;7.342;2023-12-22T03:28:21;16.25;;;1.92;;
26325;SDS011;14032;52.510;7.342;2023-12-22T03:30:47;8.60;;;1.67;;
26325;SDS011;14032;52.510;7.342;2023-12-22T03:33:12;13.98;;;2.05;;
26325;SDS011;14032;52.510;7.342;2023-12-22T03:35:38;17.13;;;2.42;;
26325;SDS011;14032;52.510;7.342;2023-12-22T03:38:03;12.35;;;2.13;;
26325;SDS011;14032;52.510;7.342;2023-12-22T03:40:29;14.98;;;1.83;;
26325;SDS011;14032;52.510;7.342;2023-12-22T03:42:55;16.40;;;2.13;;
26325;SDS011;14032;52.510;7.342;2023-12-22T03:45:20;17.02;;;2.05;;
26325;SDS011;14032;52.510;7.342;2023-12-22T03:47:46;17.00;;;2.15;;
26325;SDS011;14032;52.510;7.342;2023-12-22T03:50:12;18.05;;;2.05;;
26325;SDS011;14032;52.510;7.342;2023-12-22T03:52:37;15.48;;;2.10;;
26325;SDS011;14032;52.510;7.342;2023-12-22T03:55:03;18.63;;;2.28;;
26325;SDS011;14032;52.510;7.342;2023-12-22T03:57:29;14.43;;;2.95;;
26325;SDS011;14032;52.510;7.342;2023-12-22T03:59:54;15.93;;;2.78;;
26325;SDS011;14032;52.510;7.342;2023-12-22T04:02:20;11.55;;;2.38;;
26325;SDS011;14032;52.510;7.342;2023-12-22T04:04:45;21.35;;;2.40;;
26325;SDS011;14032;52.510;7.342;2023-12-22T04:07:11;13.07;;;1.45;;
26325;SDS011;14032;52.510;7.342;2023-12-22T04:09:37;7.10;;;1.17;;
26325;SDS011;14032;52.510;7.342;2023-12-22T04:12:03;10.60;;;1.33;;
26325;SDS011;14032;52.510;7.342;2023-12-22T04:14:29;6.82;;;1.38;;
26325;SDS011;14032;52.510;7.342;2023-12-22T04:16:55;6.10;;;1.08;;
26325;SDS011;14032;52.510;7.342;2023-12-22T04:19:22;8.18;;;1.00;;
26325;SDS011;14032;52.510;7.342;2023-12-22T04:21:47;4.65;;;0.88;;
26325;SDS011;14032;52.510;7.342;2023-12-22T04:24:13;5.63;;;0.90;;
26325;SDS011;14032;52.510;7.342;2023-12-22T04:26:39;5.68;;;1.00;;
26325;SDS011;14032;52.510;7.342;2023-12-22T04:29:05;10.25;;;1.05;;
26325;SDS011;14032;52.510;7.342;2023-12-22T04:31:30;9.63;;;1.02;;
26325;SDS011;14032;52.510;7.342;2023-12-22T04:33:56;8.85;;;1.02;;
26325;SDS011;14032;52.510;7.342;2023-12-22T04:36:21;9.55;;;0.93;;
26325;SDS011;14032;52.510;7.342;2023-12-22T04:38:47;5.38;;;1.10;;
26325;SDS011;14032;52.510;7.342;2023-12-22T04:41:12;7.50;;;1.10;;
26325;SDS011;14032;52.510;7.342;2023-12-22T04:43:38;5.25;;;0.70;;
26325;SDS011;14032;52.510;7.342;2023-12-22T04:46:03;9.82;;;1.30;;
26325;SDS011;14032;52.510;7.342;2023-12-22T04:48:29;9.52;;;1.25;;
26325;SDS011;14032;52.510;7.342;2023-12-22T04:50:54;6.18;;;1.08;;
26325;SDS011;14032;52.510;7.342;2023-12-22T04:53:20;9.10;;;1.05;;
26325;SDS011;14032;52.510;7.342;2023-12-22T04:55:45;9.13;;;1.17;;
26325;SDS011;14032;52.510;7.342;2023-12-22T04:58:11;8.23;;;1.30;;
26325;SDS011;14032;52.510;7.342;2023-12-22T05:00:37;10.35;;;1.40;;
26325;SDS011;14032;52.510;7.342;2023-12-22T05:03:02;10.05;;;1.25;;
26325;SDS011;14032;52.510;7.342;2023-12-22T05:05:28;9.38;;;1.63;;
26325;SDS011;14032;52.510;7.342;2023-12-22T05:07:54;13.02;;;1.58;;
26325;SDS011;14032;52.510;7.342;2023-12-22T05:10:19;12.05;;;1.60;;
26325;SDS011;14032;52.510;7.342;2023-12-22T05:12:45;15.30;;;1.90;;
26325;SDS011;14032;52.510;7.342;2023-12-22T05:15:11;18.50;;;2.28;;
26325;SDS011;14032;52.510;7.342;2023-12-22T05:17:36;16.80;;;1.83;;
26325;SDS011;14032;52.510;7.342;2023-12-22T05:20:02;16.48;;;2.75;;
26325;SDS011;14032;52.510;7.342;2023-12-22T05:22:28;21.40;;;2.70;;
26325;SDS011;14032;52.510;7.342;2023-12-22T05:24:55;15.38;;;1.85;;
26325;SDS011;14032;52.510;7.342;2023-12-22T05:27:22;16.75;;;2.15;;
26325;SDS011;14032;52.510;7.342;2023-12-22T05:29:48;20.27;;;2.20;;
26325;SDS011;14032;52.510;7.342;2023-12-22T05:32:13;17.60;;;2.42;;
26325;SDS011;14032;52.510;7.342;2023-12-22T05:34:39;17.88;;;2.50;;
26325;SDS011;14032;52.510;7.342;2023-12-22T05:37:04;18.40;;;2.50;;
26325;SDS011;14032;52.510;7.342;2023-12-22T05:39:30;19.60;;;2.85;;
26325;SDS011;14032;52.510;7.342;2023-12-22T05:41:56;21.27;;;2.90;;
26325;SDS011;14032;52.510;7.342;2023-12-22T05:44:22;17.38;;;3.08;;
26325;SDS011;14032;52.510;7.342;2023-12-22T05:46:49;18.73;;;2.78;;
26325;SDS011;14032;52.510;7.342;2023-12-22T05:49:15;20.35;;;2.40;;
26325;SDS011;14032;52.510;7.342;2023-12-22T05:51:41;18.50;;;2.33;;
26325;SDS011;14032;52.510;7.342;2023-12-22T05:54:07;15.98;;;2.35;;
26325;SDS011;14032;52.510;7.342;2023-12-22T05:56:33;22.67;;;3.03;;
26325;SDS011;14032;52.510;7.342;2023-12-22T05:58:59;16.67;;;2.47;;
26325;SDS011;14032;52.510;7.342;2023-12-22T06:01:26;24.33;;;3.53;;
26325;SDS011;14032;52.510;7.342;2023-12-22T06:03:52;24.67;;;3.30;;
26325;SDS011;14032;52.510;7.342;2023-12-22T06:06:18;22.10;;;3.00;;
26325;SDS011;14032;52.510;7.342;2023-12-22T06:08:44;22.02;;;2.85;;
26325;SDS011;14032;52.510;7.342;2023-12-22T06:11:09;23.20;;;3.00;;
26325;SDS011;14032;52.510;7.342;2023-12-22T06:13:35;15.18;;;2.83;;
26325;SDS011;14032;52.510;7.342;2023-12-22T06:16:01;28.50;;;3.33;;
26325;SDS011;14032;52.510;7.342;2023-12-22T06:18:26;24.85;;;3.08;;
26325;SDS011;14032;52.510;7.342;2023-12-22T06:20:52;20.15;;;2.63;;
26325;SDS011;14032;52.510;7.342;2023-12-22T06:23:17;21.83;;;2.78;;
26325;SDS011;14032;52.510;7.342;2023-12-22T06:25:43;22.85;;;2.80;;
26325;SDS011;14032;52.510;7.342;2023-12-22T06:28:11;23.75;;;3.30;;
26325;SDS011;14032;52.510;7.342;2023-12-22T06:30:37;22.20;;;2.70;;
26325;SDS011;14032;52.510;7.342;2023-12-22T06:33:03;27.40;;;3.03;;
26325;SDS011;14032;52.510;7.342;2023-12-22T06:35:28;22.40;;;3.55;;
26325;SDS011;14032;52.510;7.342;2023-12-22T06:37:54;17.67;;;3.42;;
26325;SDS011;14032;52.510;7.342;2023-12-22T06:40:21;20.13;;;3.17;;
26325;SDS011;14032;52.510;7.342;2023-12-22T06:42:46;25.65;;;3.30;;
26325;SDS011;14032;52.510;7.342;2023-12-22T06:45:12;30.10;;;2.95;;
26325;SDS011;14032;52.510;7.342;2023-12-22T06:47:37;17.92;;;2.90;;
26325;SDS011;14032;52.510;7.342;2023-12-22T06:50:03;21.27;;;2.92;;
26325;SDS011;14032;52.510;7.342;2023-12-22T06:52:29;21.73;;;2.70;;
26325;SDS011;14032;52.510;7.342;2023-12-22T06:54:55;19.67;;;2.75;;
26325;SDS011;14032;52.510;7.342;2023-12-22T06:57:21;18.58;;;2.35;;
26325;SDS011;14032;52.510;7.342;2023-12-22T06:59:47;18.33;;;3.15;;
26325;SDS011;14032;52.510;7.342;2023-12-22T07:02:14;20.65;;;3.30;;
26325;SDS011;14032;52.510;7.342;2023-12-22T07:04:59;23.45;;;4.35;;
26325;SDS011;14032;52.510;7.342;2023-12-22T07:07:34;19.15;;;2.95;;
26325;SDS011;14032;52.510;7.342;2023-12-22T07:10:00;18.45;;;3.05;;
26325;SDS011;14032;52.510;7.342;2023-12-22T07:12:26;17.95;;;3.10;;
26325;SDS011;14032;52.510;7.342;2023-12-22T07:14:51;16.52;;;2.42;;
26325;SDS011;14032;52.510;7.342;2023-12-22T07:17:17;19.42;;;3.03;;
26325;SDS011;14032;52.510;7.342;2023-12-22T07:19:42;16.92;;;2.58;;
26325;SDS011;14032;52.510;7.342;2023-12-22T07:22:08;19.55;;;2.78;;
26325;SDS011;14032;52.510;7.342;2023-12-22T07:24:34;24.38;;;2.80;;
26325;SDS011;14032;52.510;7.342;2023-12-22T07:26:59;21.77;;;2.83;;
26325;SDS011;14032;52.510;7.342;2023-12-22T07:29:25;19.65;;;2.67;;
26325;SDS011;14032;52.510;7.342;2023-12-22T07:31:50;16.67;;;2.92;;
26325;SDS011;14032;52.510;7.342;2023-12-22T07:34:16;16.98;;;2.92;;
26325;SDS011;14032;52.510;7.342;2023-12-22T07:36:43;19.05;;;2.40;;
26325;SDS011;14032;52.510;7.342;2023-12-22T07:39:09;20.20;;;2.70;;
26325;SDS011;14032;52.510;7.342;2023-12-22T07:41:35;17.75;;;2.47;;
26325;SDS011;14032;52.510;7.342;2023-12-22T07:44:01;22.85;;;2.78;;
26325;SDS011;14032;52.510;7.342;2023-12-22T07:46:27;19.08;;;2.83;;
26325;SDS011;14032;52.510;7.342;2023-12-22T07:48:55;20.30;;;2.55;;
26325;SDS011;14032;52.510;7.342;2023-12-22T07:51:21;24.52;;;2.85;;
26325;SDS011;14032;52.510;7.342;2023-12-22T07:53:46;14.18;;;2.13;;
26325;SDS011;14032;52.510;7.342;2023-12-22T07:56:12;23.48;;;3.22;;
26325;SDS011;14032;52.510;7.342;2023-12-22T07:58:38;20.00;;;3.08;;
26325;SDS011;14032;52.510;7.342;2023-12-22T08:01:03;17.13;;;2.38;;
26325;SDS011;14032;52.510;7.342;2023-12-22T08:03:30;29.80;;;3.70;;
26325;SDS011;14032;52.510;7.342;2023-12-22T08:05:56;26.40;;;3.45;;
26325;SDS011;14032;52.510;7.342;2023-12-22T08:08:22;20.40;;;3.05;;
26325;SDS011;14032;52.510;7.342;2023-12-22T08:10:47;22.92;;;4.22;;
26325;SDS011;14032;52.510;7.342;2023-12-22T08:13:13;27.13;;;3.80;;
26325;SDS011;14032;52.510;7.342;2023-12-22T08:15:39;24.25;;;3.13;;
26325;SDS011;14032;52.510;7.342;2023-12-22T08:18:04;24.90;;;3.25;;
26325;SDS011;14032;52.510;7.342;2023-12-22T08:20:31;28.95;;;3.22;;
26325;SDS011;14032;52.510;7.342;2023-12-22T08:22:56;29.45;;;3.60;;
26325;SDS011;14032;52.510;7.342;2023-12-22T08:25:22;22.02;;;3.47;;
26325;SDS011;14032;52.510;7.342;2023-12-22T08:27:47;21.33;;;3.47;;
26325;SDS011;14032;52.510;7.342;2023-12-22T08:30:13;26.63;;;3.85;;
26325;SDS011;14032;52.510;7.342;2023-12-22T08:32:41;22.10;;;2.72;;
26325;SDS011;14032;52.510;7.342;2023-12-22T08:35:07;19.38;;;3.88;;
26325;SDS011;14032;52.510;7.342;2023-12-22T08:37:33;24.67;;;3.20;;
26325;SDS011;14032;52.510;7.342;2023-12-22T08:39:58;22.45;;;3.20;;
26325;SDS011;14032;52.510;7.342;2023-12-22T08:42:24;24.15;;;3.08;;
26325;SDS011;14032;52.510;7.342;2023-12-22T08:44:51;18.92;;;3.30;;
26325;SDS011;14032;52.510;7.342;2023-12-22T08:47:16;21.35;;;2.80;;
26325;SDS011;14032;52.510;7.342;2023-12-22T08:49:42;16.65;;;2.45;;
26325;SDS011;14032;52.510;7.342;2023-12-22T08:52:08;20.13;;;2.72;;
26325;SDS011;14032;52.510;7.342;2023-12-22T08:54:33;25.40;;;2.58;;
26325;SDS011;14032;52.510;7.342;2023-12-22T08:57:00;18.92;;;3.15;;
26325;SDS011;14032;52.510;7.342;2023-12-22T08:59:26;17.17;;;2.30;;
26325;SDS011;14032;52.510;7.342;2023-12-22T09:01:52;20.05;;;2.83;;
26325;SDS011;14032;52.510;7.342;2023-12-22T09:04:18;16.73;;;2.28;;
26325;SDS011;14032;52.510;7.342;2023-12-22T09:06:46;13.65;;;2.78;;
26325;SDS011;14032;52.510;7.342;2023-12-22T09:09:11;19.63;;;2.35;;
26325;SDS011;14032;52.510;7.342;2023-12-22T09:11:37;18.25;;;2.33;;
26325;SDS011;14032;52.510;7.342;2023-12-22T09:14:04;20.63;;;2.55;;
26325;SDS011;14032;52.510;7.342;2023-12-22T09:16:34;14.80;;;2.30;;
26325;SDS011;14032;52.510;7.342;2023-12-22T09:19:00;16.67;;;2.67;;
26325;SDS011;14032;52.510;7.342;2023-12-22T09:21:26;17.67;;;3.63;;
26325;SDS011;14032;52.510;7.342;2023-12-22T09:23:52;18.35;;;2.97;;
26325;SDS011;14032;52.510;7.342;2023-12-22T09:26:17;14.45;;;2.80;;
26325;SDS011;14032;52.510;7.342;2023-12-22T09:28:43;16.05;;;2.22;;
26325;SDS011;14032;52.510;7.342;2023-12-22T09:31:10;13.23;;;2.17;;
26325;SDS011;14032;52.510;7.342;2023-12-22T09:33:37;13.73;;;1.80;;
26325;SDS011;14032;52.510;7.342;2023-12-22T09:36:03;10.77;;;1.75;;
26325;SDS011;14032;52.510;7.342;2023-12-22T09:38:29;19.65;;;2.40;;
26325;SDS011;14032;52.510;7.342;2023-12-22T09:40:58;10.82;;;2.40;;
26325;SDS011;14032;52.510;7.342;2023-12-22T09:43:24;17.00;;;1.92;;
26325;SDS011;14032;52.510;7.342;2023-12-22T09:45:50;13.02;;;2.15;;
26325;SDS011;14032;52.510;7.342;2023-12-22T09:48:17;8.13;;;2.05;;
26325;SDS011;14032;52.510;7.342;2023-12-22T09:50:44;9.15;;;1.90;;
26325;SDS011;14032;52.510;7.342;2023-12-22T09:53:13;12.40;;;1.73;;
26325;SDS011;14032;52.510;7.342;2023-12-22T09:55:43;12.82;;;1.77;;
26325;SDS011;14032;52.510;7.342;2023-12-22T09:58:11;10.27;;;1.48;;
26325;SDS011;14032;52.510;7.342;2023-12-22T10:00:39;8.43;;;1.67;;
26325;SDS011;14032;52.510;7.342;2023-12-22T10:03:09;14.93;;;2.00;;
26325;SDS011;14032;52.510;7.342;2023-12-22T10:05:42;17.40;;;1.98;;
26325;SDS011;14032;52.510;7.342;2023-12-22T10:08:08;17.35;;;2.10;;
26325;SDS011;14032;52.510;7.342;2023-12-22T10:10:38;8.68;;;1.38;;
26325;SDS011;14032;52.510;7.342;2023-12-22T10:13:08;9.57;;;1.58;;
26325;SDS011;14032;52.510;7.342;2023-12-22T10:15:39;16.23;;;3.40;;
26325;SDS011;14032;52.510;7.342;2023-12-22T10:18:07;14.32;;;2.83;;
26325;SDS011;14032;52.510;7.342;2023-12-22T10:20:34;11.55;;;1.80;;
26325;SDS011;14032;52.510;7.342;2023-12-22T10:23:00;11.30;;;1.70;;
26325;SDS011;14032;52.510;7.342;2023-12-22T10:25:29;11.35;;;2.10;;
26325;SDS011;14032;52.510;7.342;2023-12-22T10:27:55;10.75;;;1.80;;
26325;SDS011;14032;52.510;7.342;2023-12-22T10:30:21;11.32;;;1.70;;
26325;SDS011;14032;52.510;7.342;2023-12-22T10:32:50;13.95;;;2.25;;
26325;SDS011;14032;52.510;7.342;2023-12-22T10:35:17;8.32;;;1.50;;
26325;SDS011;14032;52.510;7.342;2023-12-22T10:37:43;13.93;;;1.65;;
26325;SDS011;14032;52.510;7.342;2023-12-22T10:40:10;7.75;;;1.75;;
26325;SDS011;14032;52.510;7.342;2023-12-22T10:42:36;8.85;;;1.52;;
26325;SDS011;14032;52.510;7.342;2023-12-22T10:45:02;16.05;;;2.47;;
26325;SDS011;14032;52.510;7.342;2023-12-22T10:47:28;13.32;;;2.25;;
26325;SDS011;14032;52.510;7.342;2023-12-22T10:49:54;14.23;;;2.15;;
26325;SDS011;14032;52.510;7.342;2023-12-22T10:52:20;13.30;;;2.67;;
26325;SDS011;14032;52.510;7.342;2023-12-22T10:54:45;13.35;;;1.77;;
26325;SDS011;14032;52.510;7.342;2023-12-22T10:57:13;13.57;;;1.77;;
26325;SDS011;14032;52.510;7.342;2023-12-22T10:59:44;13.75;;;2.20;;
26325;SDS011;14032;52.510;7.342;2023-12-22T11:02:13;12.63;;;1.60;;
26325;SDS011;14032;52.510;7.342;2023-12-22T11:05:05;14.52;;;2.05;;
26325;SDS011;14032;52.510;7.342;2023-12-22T11:07:34;13.25;;;1.92;;
26325;SDS011;14032;52.510;7.342;2023-12-22T11:10:02;6.05;;;1.33;;
26325;SDS011;14032;52.510;7.342;2023-12-22T11:12:31;10.27;;;1.58;;
26325;SDS011;14032;52.510;7.342;2023-12-22T11:14:58;7.72;;;1.83;;
26325;SDS011;14032;52.510;7.342;2023-12-22T11:17:24;12.05;;;1.60;;
26325;SDS011;14032;52.510;7.342;2023-12-22T11:19:53;11.73;;;2.20;;
26325;SDS011;14032;52.510;7.342;2023-12-22T11:22:20;8.32;;;1.50;;
26325;SDS011;14032;52.510;7.342;2023-12-22T11:24:47;9.57;;;1.83;;
26325;SDS011;14032;52.510;7.342;2023-12-22T11:27:16;7.10;;;1.52;;
26325;SDS011;14032;52.510;7.342;2023-12-22T11:29:44;11.38;;;1.45;;
26325;SDS011;14032;52.510;7.342;2023-12-22T11:32:17;7.43;;;1.70;;
26325;SDS011;14032;52.510;7.342;2023-12-22T11:34:44;8.95;;;1.17;;
26325;SDS011;14032;52.510;7.342;2023-12-22T11:37:11;6.00;;;1.33;;
26325;SDS011;14032;52.510;7.342;2023-12-22T11:39:43;6.65;;;2.00;;
26325;SDS011;14032;52.510;7.342;2023-12-22T11:42:18;7.95;;;1.60;;
26325;SDS011;14032;52.510;7.342;2023-12-22T11:44:46;5.95;;;1.38;;
26325;SDS011;14032;52.510;7.342;2023-12-22T11:47:12;8.65;;;3.20;;
26325;SDS011;14032;52.510;7.342;2023-12-22T11:49:39;15.07;;;4.95;;
26325;SDS011;14032;52.510;7.342;2023-12-22T11:52:13;8.50;;;3.30;;
26325;SDS011;14032;52.510;7.342;2023-12-22T11:54:47;5.10;;;1.60;;
26325;SDS011;14032;52.510;7.342;2023-12-22T11:59:58;5.18;;;1.63;;
26325;SDS011;14032;52.510;7.342;2023-12-22T12:02:35;5.15;;;1.15;;
26325;SDS011;14032;52.510;7.342;2023-12-22T12:05:01;6.05;;;0.80;;
26325;SDS011;14032;52.510;7.342;2023-12-22T12:07:46;4.75;;;0.75;;
26325;SDS011;14032;52.510;7.342;2023-12-22T12:13:10;7.28;;;1.45;;
26325;SDS011;14032;52.510;7.342;2023-12-22T12:15:37;3.58;;;0.77;;
26325;SDS011;14032;52.510;7.342;2023-12-22T12:18:04;4.50;;;1.00;;
26325;SDS011;14032;52.510;7.342;2023-12-22T12:20:33;4.43;;;0.50;;
26325;SDS011;14032;52.510;7.342;2023-12-22T12:23:00;4.20;;;0.85;;
26325;SDS011;14032;52.510;7.342;2023-12-22T12:25:29;6.05;;;0.68;;
26325;SDS011;14032;52.510;7.342;2023-12-22T12:28:06;5.43;;;1.23;;
26325;SDS011;14032;52.510;7.342;2023-12-22T12:30:32;3.92;;;0.80;;
26325;SDS011;14032;52.510;7.342;2023-12-22T12:33:05;6.13;;;0.57;;
26325;SDS011;14032;52.510;7.342;2023-12-22T12:38:05;3.75;;;0.60;;
26325;SDS011;14032;52.510;7.342;2023-12-22T12:40:31;3.72;;;0.63;;
26325;SDS011;14032;52.510;7.342;2023-12-22T12:43:00;2.25;;;0.40;;
26325;SDS011;14032;52.510;7.342;2023-12-22T12:45:27;1.90;;;0.80;;
26325;SDS011;14032;52.510;7.342;2023-12-22T12:47:54;3.42;;;0.80;;
26325;SDS011;14032;52.510;7.342;2023-12-22T12:50:24;2.67;;;0.50;;
26325;SDS011;14032;52.510;7.342;2023-12-22T12:52:51;2.83;;;0.77;;
26325;SDS011;14032;52.510;7.342;2023-12-22T12:55:19;4.22;;;0.80;;
26325;SDS011;14032;52.510;7.342;2023-12-22T12:57:47;6.68;;;1.10;;
26325;SDS011;14032;52.510;7.342;2023-12-22T13:00:14;6.28;;;2.40;;
26325;SDS011;14032;52.510;7.342;2023-12-22T13:02:40;1.98;;;0.80;;
26325;SDS011;14032;52.510;7.342;2023-12-22T13:05:06;3.40;;;0.70;;
26325;SDS011;14032;52.510;7.342;2023-12-22T13:07:34;6.90;;;1.20;;
26325;SDS011;14032;52.510;7.342;2023-12-22T13:10:00;5.82;;;1.15;;
26325;SDS011;14032;52.510;7.342;2023-12-22T13:12:27;3.42;;;0.52;;
26325;SDS011;14032;52.510;7.342;2023-12-22T13:14:53;3.95;;;0.80;;
26325;SDS011;14032;52.510;7.342;2023-12-22T13:17:18;4.70;;;0.60;;
26325;SDS011;14032;52.510;7.342;2023-12-22T13:19:45;3.28;;;0.80;;
26325;SDS011;14032;52.510;7.342;2023-12-22T13:22:11;4.13;;;0.70;;
26325;SDS011;14032;52.510;7.342;2023-12-22T13:24:36;2.25;;;0.70;;
26325;SDS011;14032;52.510;7.342;2023-12-22T13:27:03;3.63;;;0.85;;
26325;SDS011;14032;52.510;7.342;2023-12-22T13:29:41;4.90;;;0.90;;
26325;SDS011;14032;52.510;7.342;2023-12-22T13:32:20;3.42;;;0.70;;
26325;SDS011;14032;52.510;7.342;2023-12-22T13:34:50;2.10;;;0.85;;
26325;SDS011;14032;52.510;7.342;2023-12-22T13:37:16;2.35;;;0.50;;
26325;SDS011;14032;52.510;7.342;2023-12-22T13:39:42;2.50;;;0.57;;
26325;SDS011;14032;52.510;7.342;2023-12-22T13:42:15;3.33;;;1.00;;
26325;SDS011;14032;52.510;7.342;2023-12-22T13:44:42;2.08;;;0.50;;
26325;SDS011;14032;52.510;7.342;2023-12-22T13:47:14;4.03;;;1.05;;
26325;SDS011;14032;52.510;7.342;2023-12-22T13:49:44;5.97;;;1.10;;
26325;SDS011;14032;52.510;7.342;2023-12-22T13:52:26;3.85;;;0.73;;
26325;SDS011;14032;52.510;7.342;2023-12-22T13:54:53;4.88;;;0.80;;
26325;SDS011;14032;52.510;7.342;2023-12-22T13:57:21;3.17;;;0.70;;
26325;SDS011;14032;52.510;7.342;2023-12-22T13:59:47;6.53;;;0.73;;
26325;SDS011;14032;52.510;7.342;2023-12-22T14:02:13;4.60;;;0.70;;
26325;SDS011;14032;52.510;7.342;2023-12-22T14:04:39;1.83;;;0.60;;
26325;SDS011;14032;52.510;7.342;2023-12-22T14:07:04;5.45;;;0.82;;
26325;SDS011;14032;52.510;7.342;2023-12-22T14:09:30;4.15;;;0.57;;
26325;SDS011;14032;52.510;7.342;2023-12-22T14:11:58;2.30;;;0.70;;
26325;SDS011;14032;52.510;7.342;2023-12-22T14:14:24;4.65;;;0.90;;
26325;SDS011;14032;52.510;7.342;2023-12-22T14:16:50;6.43;;;1.17;;
26325;SDS011;14032;52.510;7.342;2023-12-22T14:19:15;3.65;;;0.95;;
26325;SDS011;14032;52.510;7.342;2023-12-22T14:21:41;6.63;;;0.90;;
26325;SDS011;14032;52.510;7.342;2023-12-22T14:24:06;4.10;;;1.05;;
26325;SDS011;14032;52.510;7.342;2023-12-22T14:26:32;7.50;;;1.33;;
26325;SDS011;14032;52.510;7.342;2023-12-22T14:28:58;7.75;;;1.13;;
26325;SDS011;14032;52.510;7.342;2023-12-22T14:31:23;4.35;;;1.00;;
26325;SDS011;14032;52.510;7.342;2023-12-22T14:33:49;7.10;;;1.30;;
26325;SDS011;14032;52.510;7.342;2023-12-22T14:36:15;6.97;;;0.90;;
26325;SDS011;14032;52.510;7.342;2023-12-22T14:38:40;5.93;;;1.10;;
26325;SDS011;14032;52.510;7.342;2023-12-22T14:41:06;5.47;;;1.10;;
26325;SDS011;14032;52.510;7.342;2023-12-22T14:43:31;2.90;;;0.80;;
26325;SDS011;14032;52.510;7.342;2023-12-22T14:45:57;6.93;;;1.75;;
26325;SDS011;14032;52.510;7.342;2023-12-22T14:48:22;4.78;;;0.80;;